KLGB/LGB METAR and TAF weather

Enter ICAO airport designator
Station Type Date Time Source
KLGB METAR 2021/07/30 06:53 UTC NOAA

KLGB 300653Z AUTO 00000KT 9SM CLR 19/16 A2991 RMK AO2 SLP129 T01890156


Station Type Date Time Source
KLGB Decoded METAR 2021/07/30 06:53 UTC NOAA

LONG BEACH AIRPORT, CA, United States (KLGB) 33-49N 118-09W 10M
Jul 30, 2021 - 02:53 AM EDT / 2021.07.30 0653 UTC
Wind: Calm:0
Visibility: 9 mile(s):0
Sky conditions: clear
Temperature: 66.0 F (18.9 C)
Dew Point: 60.1 F (15.6 C)
Relative Humidity: 81%
Pressure (altimeter): 29.91 in. Hg (1012 hPa)
ob: KLGB 300653Z AUTO 00000KT 9SM CLR 19/16 A2991 RMK AO2 SLP129 T01890156
cycle: 7

Station Type Date Time Source
KLGB TAF 2021/07/30 06:39 UTC NOAA

TAF KLGB 300537Z 3006/3106 31006KT P6SM SKC
FM301200 14005KT P6SM BKN010
FM301600 19007KT P6SM SKC
FM302200 29010KT P6SM SKC

Example: see airport list